PST: 04:59 MST: 05:59 CST: 06:59 EST: 07:59 LDN: 12:59 UTC: 12:59
User Agent: CCBot/2.0 (https://commoncrawl.org/faq/)
IP Address: 3.233.224.8
Hostname: ec2-3-233-224-8.compute-1.amazonaws.com

METAR:
KBFI 151253Z 00000KT 10SM BKN047 04/02 A3010 RMK AO2 SLP192 T00390022
KBFI 151200Z 00000KT 10SM BKN043 03/02 A3009 RMK AO2 T00330022
KBFI 151153Z 00000KT 10SM BKN019 OVC042 04/03 A3009 RMK AO2 SLP190 60008 70028 T00440028 10061 20044 51014
KBFI 151053Z 15004KT 10SM BKN019 OVC042 05/03 A3008 RMK AO2 RAE32 SLP186 P0001 T00500033
KBFI 150953Z AUTO 06005KT 6SM RA BR BKN009 OVC019 06/03 A3007 RMK AO2 RAE09B29 SLP182 P0005 T00560033 TSNO
KBFI 150907Z 00000KT 6SM -RA BR BKN009 OVC019 06/04 A3006 RMK AO2 P0000 T00560039

TAF:
KBFI 151121Z 1512/1612 VRB04KT P6SM VCSH FEW010 SCT018 OVC040 TEMPO 1512/1516 6SM -SHRA SCT010 OVC020
FM 151800 18005KT P6SM VCSH OVC025
FM 160000 18005KT P6SM FEW030 BKN050
FM 160900 14004KT P6SM FEW030 SCT150 OVC200

KBFI 150904Z 1509/1606 VRB03KT P6SM VCSH SCT015 OVC045 TEMPO 1509/1512 6SM -SHRA BKN015 OVC020
FM 151800 15004KT P6SM VCSH BKN015 OVC028
FM 152300 15005KT P6SM BKN030 BKN050
FM 160500 VRB03KT P6SM BKN030

KBFI 150536Z 1506/1606 VRB03KT P6SM VCSH FEW007 BKN015 OVC035 TEMPO 1506/1509 6SM -SHRA BR SCT007 OVC012
FM 150900 VRB03KT P6SM VCSH OVC009
FM 151800 15004KT P6SM VCSH BKN015 OVC028
FM 152300 15005KT P6SM BKN030 BKN050
FM 160500 VRB03KT P6SM BKN030

KBFI 150300Z 1503/1524 VRB04KT P6SM VCSH OVC015 TEMPO 1503/1507 6SM -SHRA BR
FM 150800 VRB03KT P6SM VCSH OVC009
FM 151800 16004KT P6SM VCSH BKN016 OVC030
FM 152300 15005KT P6SM SCT030 BKN050

KBFI 142338Z 1500/1524 VRB04KT P6SM VCSH SCT012 OVC018 TEMPO 1500/1504 6SM -SHRA BR BKN012
FM 150400 VRB03KT P6SM OVC011
FM 150800 VRB03KT P6SM OVC009
FM 151800 16004KT P6SM BKN016 OVC030
FM 152300 15005KT P6SM SCT030 BKN050

KBFI 142104Z 1421/1518 16005KT P6SM SCT009 OVC017 TEMPO 1421/1424 5SM -DZ BR BKN007 OVC015
FM 150000 VRB04KT P6SM SCT012 OVC018
FM 150300 VRB03KT P6SM OVC012
FM 150800 VRB03KT P6SM OVC009

KBFI 141732Z 1418/1518 15005KT P6SM SCT009 OVC017 TEMPO 1418/1422 5SM -DZ BR BKN007 OVC015
FM 142200 VRB04KT P6SM SCT012 OVC018
FM 150300 VRB03KT P6SM OVC012
FM 150800 VRB03KT P6SM OVC009

KBFI 141141Z 1412/1512 00000KT P6SM SCT010 BKN020
FM 141500 17004KT P6SM OVC015
FM 142100 16005KT P6SM BKN025 BKN050
FM 150000 17005KT P6SM SCT030 BKN050
FM 150700 14002KT P6SM OVC020